sensor_id;sensor_type;location;lat;lon;timestamp;pressure;altitude;pressure_sealevel;temperature;humidity
54038;BME280;39954;48.844;9.726;2022-12-18T00:00:05;97114.91;;;-11.71;100.00
54038;BME280;39954;48.844;9.726;2022-12-18T00:01:18;97123.09;;;-11.75;100.00
54038;BME280;39954;48.844;9.726;2022-12-18T00:02:23;97121.22;;;-11.79;100.00
54038;BME280;39954;48.844;9.726;2022-12-18T00:03:25;97122.53;;;-11.87;100.00
54038;BME280;39954;48.844;9.726;2022-12-18T00:04:30;97125.84;;;-11.88;100.00
54038;BME280;39954;48.844;9.726;2022-12-18T00:05:32;97129.88;;;-11.92;100.00
54038;BME280;39954;48.844;9.726;2022-12-18T00:06:37;97126.44;;;-11.94;100.00
54038;BME280;39954;48.844;9.726;2022-12-18T00:07:39;97125.63;;;-11.93;100.00
54038;BME280;39954;48.844;9.726;2022-12-18T00:08:44;97128.06;;;-11.95;100.00
54038;BME280;39954;48.844;9.726;2022-12-18T00:09:46;97119.69;;;-11.95;100.00
54038;BME280;39954;48.844;9.726;2022-12-18T00:10:51;97126.78;;;-12.04;100.00
54038;BME280;39954;48.844;9.726;2022-12-18T00:11:53;97118.34;;;-12.06;100.00
54038;BME280;39954;48.844;9.726;2022-12-18T00:12:57;97120.47;;;-12.14;100.00
54038;BME280;39954;48.844;9.726;2022-12-18T00:14:03;97116.19;;;-12.17;100.00
54038;BME280;39954;48.844;9.726;2022-12-18T00:15:08;97119.41;;;-12.19;100.00
54038;BME280;39954;48.844;9.726;2022-12-18T00:16:12;97115.66;;;-12.27;100.00
54038;BME280;39954;48.844;9.726;2022-12-18T00:17:20;97125.69;;;-12.27;100.00
54038;BME280;39954;48.844;9.726;2022-12-18T00:18:22;97115.66;;;-12.27;100.00
54038;BME280;39954;48.844;9.726;2022-12-18T00:19:27;97126.25;;;-12.33;100.00
54038;BME280;39954;48.844;9.726;2022-12-18T00:20:29;97132.78;;;-12.19;100.00
54038;BME280;39954;48.844;9.726;2022-12-18T00:21:33;97132.72;;;-12.20;100.00
54038;BME280;39954;48.844;9.726;2022-12-18T00:22:36;97141.00;;;-12.21;100.00
54038;BME280;39954;48.844;9.726;2022-12-18T00:23:42;97131.94;;;-12.19;100.00
54038;BME280;39954;48.844;9.726;2022-12-18T00:24:44;97131.16;;;-12.18;100.00
54038;BME280;39954;48.844;9.726;2022-12-18T00:25:49;97133.50;;;-12.21;100.00
54038;BME280;39954;48.844;9.726;2022-12-18T00:26:50;97130.69;;;-12.27;100.00
54038;BME280;39954;48.844;9.726;2022-12-18T00:27:55;97129.13;;;-12.25;100.00
54038;BME280;39954;48.844;9.726;2022-12-18T00:28:58;97137.59;;;-12.23;100.00
54038;BME280;39954;48.844;9.726;2022-12-18T00:30:05;97138.31;;;-12.26;100.00
54038;BME280;39954;48.844;9.726;2022-12-18T00:31:09;97134.94;;;-12.26;100.00
54038;BME280;39954;48.844;9.726;2022-12-18T00:32:14;97129.75;;;-12.29;100.00
54038;BME280;39954;48.844;9.726;2022-12-18T00:33:18;97138.03;;;-12.14;100.00
54038;BME280;39954;48.844;9.726;2022-12-18T00:34:23;97129.44;;;-12.19;100.00
54038;BME280;39954;48.844;9.726;2022-12-18T00:35:25;97125.59;;;-12.12;100.00
54038;BME280;39954;48.844;9.726;2022-12-18T00:36:32;97131.72;;;-12.06;100.00
54038;BME280;39954;48.844;9.726;2022-12-18T00:37:34;97128.69;;;-11.99;100.00
54038;BME280;39954;48.844;9.726;2022-12-18T00:38:39;97125.94;;;-11.87;100.00
54038;BME280;39954;48.844;9.726;2022-12-18T00:39:41;97120.31;;;-11.81;100.00
54038;BME280;39954;48.844;9.726;2022-12-18T00:40:46;97124.66;;;-11.59;100.00
54038;BME280;39954;48.844;9.726;2022-12-18T00:41:48;97119.59;;;-11.41;100.00
54038;BME280;39954;48.844;9.726;2022-12-18T00:43:05;97116.88;;;-11.46;100.00
54038;BME280;39954;48.844;9.726;2022-12-18T00:44:13;97119.31;;;-11.47;100.00
54038;BME280;39954;48.844;9.726;2022-12-18T00:45:16;97121.16;;;-11.43;100.00
54038;BME280;39954;48.844;9.726;2022-12-18T00:46:20;97122.34;;;-11.55;100.00
54038;BME280;39954;48.844;9.726;2022-12-18T00:47:22;97120.38;;;-11.62;100.00
54038;BME280;39954;48.844;9.726;2022-12-18T00:48:29;97125.38;;;-11.62;100.00
54038;BME280;39954;48.844;9.726;2022-12-18T00:49:31;97122.50;;;-11.69;100.00
54038;BME280;39954;48.844;9.726;2022-12-18T00:50:36;97117.13;;;-11.77;100.00
54038;BME280;39954;48.844;9.726;2022-12-18T00:51:38;97127.84;;;-11.81;100.00
54038;BME280;39954;48.844;9.726;2022-12-18T00:52:43;97121.94;;;-11.82;100.00
54038;BME280;39954;48.844;9.726;2022-12-18T00:53:45;97134.41;;;-11.83;100.00
54038;BME280;39954;48.844;9.726;2022-12-18T00:54:49;97128.75;;;-11.79;100.00
54038;BME280;39954;48.844;9.726;2022-12-18T00:55:51;97131.81;;;-11.85;100.00
54038;BME280;39954;48.844;9.726;2022-12-18T00:56:56;97130.00;;;-11.89;100.00
54038;BME280;39954;48.844;9.726;2022-12-18T00:57:58;97126.78;;;-11.86;100.00
54038;BME280;39954;48.844;9.726;2022-12-18T00:59:03;97126.91;;;-11.83;100.00
54038;BME280;39954;48.844;9.726;2022-12-18T01:00:06;97120.72;;;-11.72;100.00
54038;BME280;39954;48.844;9.726;2022-12-18T01:01:12;97121.41;;;-11.57;100.00
54038;BME280;39954;48.844;9.726;2022-12-18T01:02:14;97113.38;;;-11.50;100.00
54038;BME280;39954;48.844;9.726;2022-12-18T01:03:19;97116.31;;;-11.21;100.00
54038;BME280;39954;48.844;9.726;2022-12-18T01:04:23;97105.88;;;-11.11;100.00
54038;BME280;39954;48.844;9.726;2022-12-18T01:05:28;97118.28;;;-10.94;100.00
54038;BME280;39954;48.844;9.726;2022-12-18T01:06:34;97111.66;;;-10.92;100.00
54038;BME280;39954;48.844;9.726;2022-12-18T01:07:36;97109.16;;;-10.92;100.00
54038;BME280;39954;48.844;9.726;2022-12-18T01:08:41;97105.78;;;-10.93;100.00
54038;BME280;39954;48.844;9.726;2022-12-18T01:09:43;97111.50;;;-10.97;100.00
54038;BME280;39954;48.844;9.726;2022-12-18T01:10:48;97109.09;;;-10.94;100.00
54038;BME280;39954;48.844;9.726;2022-12-18T01:11:50;97116.56;;;-10.95;100.00
54038;BME280;39954;48.844;9.726;2022-12-18T01:12:55;97104.88;;;-10.95;100.00
54038;BME280;39954;48.844;9.726;2022-12-18T01:13:57;97106.00;;;-10.88;100.00
54038;BME280;39954;48.844;9.726;2022-12-18T01:15:03;97109.63;;;-10.82;100.00
54038;BME280;39954;48.844;9.726;2022-12-18T01:16:05;97115.50;;;-10.81;100.00
54038;BME280;39954;48.844;9.726;2022-12-18T01:17:10;97121.88;;;-10.89;100.00
54038;BME280;39954;48.844;9.726;2022-12-18T01:18:12;97114.97;;;-10.93;100.00
54038;BME280;39954;48.844;9.726;2022-12-18T01:19:17;97126.59;;;-10.95;100.00
54038;BME280;39954;48.844;9.726;2022-12-18T01:20:21;97115.53;;;-11.00;100.00
54038;BME280;39954;48.844;9.726;2022-12-18T01:21:26;97115.78;;;-10.94;100.00
54038;BME280;39954;48.844;9.726;2022-12-18T01:22:28;97118.19;;;-10.76;100.00
54038;BME280;39954;48.844;9.726;2022-12-18T01:23:32;97114.75;;;-10.78;100.00
54038;BME280;39954;48.844;9.726;2022-12-18T01:24:35;97115.66;;;-10.78;100.00
54038;BME280;39954;48.844;9.726;2022-12-18T01:25:39;97114.28;;;-10.70;100.00
54038;BME280;39954;48.844;9.726;2022-12-18T01:26:41;97111.00;;;-10.69;100.00
54038;BME280;39954;48.844;9.726;2022-12-18T01:27:46;97106.91;;;-10.67;100.00
54038;BME280;39954;48.844;9.726;2022-12-18T01:28:48;97106.09;;;-10.66;100.00
54038;BME280;39954;48.844;9.726;2022-12-18T01:29:52;97101.28;;;-10.61;100.00
54038;BME280;39954;48.844;9.726;2022-12-18T01:30:54;97103.97;;;-10.56;100.00
54038;BME280;39954;48.844;9.726;2022-12-18T01:31:59;97106.72;;;-10.50;100.00
54038;BME280;39954;48.844;9.726;2022-12-18T01:33:01;97113.97;;;-10.58;100.00
54038;BME280;39954;48.844;9.726;2022-12-18T01:34:06;97123.94;;;-10.60;100.00
54038;BME280;39954;48.844;9.726;2022-12-18T01:35:08;97119.84;;;-10.57;100.00
54038;BME280;39954;48.844;9.726;2022-12-18T01:36:21;97129.50;;;-10.67;100.00
54038;BME280;39954;48.844;9.726;2022-12-18T01:37:24;97125.81;;;-10.75;100.00
54038;BME280;39954;48.844;9.726;2022-12-18T01:38:28;97124.50;;;-10.86;100.00
54038;BME280;39954;48.844;9.726;2022-12-18T01:39:32;97128.34;;;-10.94;100.00
54038;BME280;39954;48.844;9.726;2022-12-18T01:40:36;97131.38;;;-11.01;100.00
54038;BME280;39954;48.844;9.726;2022-12-18T01:41:39;97135.19;;;-11.10;100.00
54038;BME280;39954;48.844;9.726;2022-12-18T01:42:56;97145.78;;;-11.17;100.00
54038;BME280;39954;48.844;9.726;2022-12-18T01:44:01;97135.31;;;-11.26;100.00
54038;BME280;39954;48.844;9.726;2022-12-18T01:45:06;97140.06;;;-11.32;100.00
54038;BME280;39954;48.844;9.726;2022-12-18T01:46:11;97141.38;;;-11.40;100.00
54038;BME280;39954;48.844;9.726;2022-12-18T01:47:14;97137.78;;;-11.45;100.00
54038;BME280;39954;48.844;9.726;2022-12-18T01:48:20;97149.28;;;-11.51;100.00
54038;BME280;39954;48.844;9.726;2022-12-18T01:49:24;97141.97;;;-11.46;100.00
54038;BME280;39954;48.844;9.726;2022-12-18T01:50:30;97144.91;;;-11.55;100.00
54038;BME280;39954;48.844;9.726;2022-12-18T01:51:39;97143.69;;;-11.63;100.00
54038;BME280;39954;48.844;9.726;2022-12-18T01:52:42;97140.78;;;-11.72;100.00
54038;BME280;39954;48.844;9.726;2022-12-18T01:53:48;97144.00;;;-11.75;100.00
54038;BME280;39954;48.844;9.726;2022-12-18T01:54:50;97148.59;;;-11.84;100.00
54038;BME280;39954;48.844;9.726;2022-12-18T01:55:57;97147.47;;;-11.90;100.00
54038;BME280;39954;48.844;9.726;2022-12-18T01:57:00;97150.63;;;-11.95;100.00
54038;BME280;39954;48.844;9.726;2022-12-18T01:58:05;97140.47;;;-11.98;100.00
54038;BME280;39954;48.844;9.726;2022-12-18T01:59:10;97141.75;;;-12.06;100.00
54038;BME280;39954;48.844;9.726;2022-12-18T02:00:17;97138.97;;;-12.12;100.00
54038;BME280;39954;48.844;9.726;2022-12-18T02:01:20;97141.19;;;-12.18;100.00
54038;BME280;39954;48.844;9.726;2022-12-18T02:02:26;97137.78;;;-12.19;100.00
54038;BME280;39954;48.844;9.726;2022-12-18T02:03:29;97140.47;;;-11.98;100.00
54038;BME280;39954;48.844;9.726;2022-12-18T02:04:34;97138.09;;;-11.95;100.00
54038;BME280;39954;48.844;9.726;2022-12-18T02:05:42;97130.66;;;-11.74;100.00
54038;BME280;39954;48.844;9.726;2022-12-18T02:06:57;97124.50;;;-11.62;100.00
54038;BME280;39954;48.844;9.726;2022-12-18T02:08:08;97123.88;;;-11.39;100.00
54038;BME280;39954;48.844;9.726;2022-12-18T02:09:18;97117.88;;;-11.23;100.00
54038;BME280;39954;48.844;9.726;2022-12-18T02:10:27;97106.72;;;-11.10;100.00
54038;BME280;39954;48.844;9.726;2022-12-18T02:11:41;97114.03;;;-10.95;100.00
54038;BME280;39954;48.844;9.726;2022-12-18T02:12:49;97120.59;;;-10.79;100.00
54038;BME280;39954;48.844;9.726;2022-12-18T02:14:02;97124.22;;;-10.73;100.00
54038;BME280;39954;48.844;9.726;2022-12-18T02:15:13;97127.78;;;-10.68;100.00
54038;BME280;39954;48.844;9.726;2022-12-18T02:16:24;97122.81;;;-10.66;100.00
54038;BME280;39954;48.844;9.726;2022-12-18T02:17:33;97119.63;;;-10.62;100.00
54038;BME280;39954;48.844;9.726;2022-12-18T02:18:43;97118.97;;;-10.58;100.00
54038;BME280;39954;48.844;9.726;2022-12-18T02:19:59;97115.47;;;-10.62;100.00
54038;BME280;39954;48.844;9.726;2022-12-18T02:21:15;97114.69;;;-10.61;100.00
54038;BME280;39954;48.844;9.726;2022-12-18T02:22:26;97115.53;;;-10.60;100.00
54038;BME280;39954;48.844;9.726;2022-12-18T02:23:46;97114.81;;;-10.57;100.00
54038;BME280;39954;48.844;9.726;2022-12-18T02:24:58;97130.50;;;-10.63;100.00
54038;BME280;39954;48.844;9.726;2022-12-18T02:26:19;97131.34;;;-10.63;100.00
54038;BME280;39954;48.844;9.726;2022-12-18T02:27:24;97136.97;;;-10.68;100.00
54038;BME280;39954;48.844;9.726;2022-12-18T02:28:31;97138.44;;;-10.73;100.00
54038;BME280;39954;48.844;9.726;2022-12-18T02:29:42;97142.84;;;-10.68;100.00
54038;BME280;39954;48.844;9.726;2022-12-18T02:30:47;97132.56;;;-10.74;100.00
54038;BME280;39954;48.844;9.726;2022-12-18T02:31:56;97136.50;;;-10.79;100.00
54038;BME280;39954;48.844;9.726;2022-12-18T02:33:01;97140.03;;;-10.95;100.00
54038;BME280;39954;48.844;9.726;2022-12-18T02:34:08;97142.00;;;-11.07;100.00
54038;BME280;39954;48.844;9.726;2022-12-18T02:35:15;97144.72;;;-11.22;100.00
54038;BME280;39954;48.844;9.726;2022-12-18T02:36:22;97138.34;;;-11.33;100.00
54038;BME280;39954;48.844;9.726;2022-12-18T02:37:27;97142.81;;;-11.45;100.00
54038;BME280;39954;48.844;9.726;2022-12-18T02:38:33;97141.78;;;-11.51;100.00
54038;BME280;39954;48.844;9.726;2022-12-18T02:39:38;97138.81;;;-11.60;100.00
54038;BME280;39954;48.844;9.726;2022-12-18T02:40:45;97145.00;;;-11.71;100.00
54038;BME280;39954;48.844;9.726;2022-12-18T02:41:50;97156.31;;;-11.79;100.00
54038;BME280;39954;48.844;9.726;2022-12-18T02:43:02;97153.44;;;-11.88;100.00
54038;BME280;39954;48.844;9.726;2022-12-18T02:44:07;97163.97;;;-11.96;100.00
54038;BME280;39954;48.844;9.726;2022-12-18T02:45:12;97149.31;;;-12.04;100.00
54038;BME280;39954;48.844;9.726;2022-12-18T02:46:27;97144.75;;;-12.13;100.00
54038;BME280;39954;48.844;9.726;2022-12-18T02:47:35;97138.75;;;-12.17;100.00
54038;BME280;39954;48.844;9.726;2022-12-18T02:48:38;97140.16;;;-12.22;100.00
54038;BME280;39954;48.844;9.726;2022-12-18T02:49:49;97131.88;;;-12.21;100.00
54038;BME280;39954;48.844;9.726;2022-12-18T02:51:00;97139.59;;;-12.16;100.00
54038;BME280;39954;48.844;9.726;2022-12-18T02:52:13;97132.88;;;-12.17;100.00
54038;BME280;39954;48.844;9.726;2022-12-18T02:53:24;97136.22;;;-12.17;100.00
54038;BME280;39954;48.844;9.726;2022-12-18T02:54:47;97140.00;;;-12.25;100.00
54038;BME280;39954;48.844;9.726;2022-12-18T02:55:58;97146.59;;;-12.27;100.00
54038;BME280;39954;48.844;9.726;2022-12-18T02:57:15;97139.88;;;-12.28;100.00
54038;BME280;39954;48.844;9.726;2022-12-18T02:58:21;97147.16;;;-12.32;100.00
54038;BME280;39954;48.844;9.726;2022-12-18T02:59:33;97147.94;;;-12.33;100.00
54038;BME280;39954;48.844;9.726;2022-12-18T03:00:41;97142.53;;;-12.25;100.00
54038;BME280;39954;48.844;9.726;2022-12-18T03:01:50;97151.97;;;-12.19;100.00
54038;BME280;39954;48.844;9.726;2022-12-18T03:02:56;97149.47;;;-12.19;100.00
54038;BME280;39954;48.844;9.726;2022-12-18T03:04:07;97152.84;;;-12.19;100.00
54038;BME280;39954;48.844;9.726;2022-12-18T03:05:15;97156.03;;;-12.21;100.00
54038;BME280;39954;48.844;9.726;2022-12-18T03:06:23;97163.78;;;-12.17;100.00
54038;BME280;39954;48.844;9.726;2022-12-18T03:07:33;97167.81;;;-12.20;100.00
54038;BME280;39954;48.844;9.726;2022-12-18T03:08:42;97166.97;;;-12.21;100.00
54038;BME280;39954;48.844;9.726;2022-12-18T03:09:49;97160.72;;;-12.11;100.00
54038;BME280;39954;48.844;9.726;2022-12-18T03:10:59;97167.53;;;-12.08;100.00
54038;BME280;39954;48.844;9.726;2022-12-18T03:12:06;97166.69;;;-12.09;100.00
54038;BME280;39954;48.844;9.726;2022-12-18T03:13:32;97161.81;;;-12.06;100.00
54038;BME280;39954;48.844;9.726;2022-12-18T03:14:40;97156.94;;;-12.03;100.00
54038;BME280;39954;48.844;9.726;2022-12-18T03:15:46;97155.84;;;-12.08;100.00
54038;BME280;39954;48.844;9.726;2022-12-18T03:16:54;97165.59;;;-12.14;100.00
54038;BME280;39954;48.844;9.726;2022-12-18T03:18:02;97161.22;;;-12.18;100.00
54038;BME280;39954;48.844;9.726;2022-12-18T03:19:11;97166.59;;;-12.10;100.00
54038;BME280;39954;48.844;9.726;2022-12-18T03:20:19;97157.28;;;-12.13;100.00
54038;BME280;39954;48.844;9.726;2022-12-18T03:21:29;97159.50;;;-12.19;100.00
54038;BME280;39954;48.844;9.726;2022-12-18T03:22:35;97159.22;;;-12.25;100.00
54038;BME280;39954;48.844;9.726;2022-12-18T03:23:44;97168.94;;;-12.31;100.00
54038;BME280;39954;48.844;9.726;2022-12-18T03:24:51;97163.78;;;-12.34;100.00
54038;BME280;39954;48.844;9.726;2022-12-18T03:25:58;97170.22;;;-12.40;100.00
54038;BME280;39954;48.844;9.726;2022-12-18T03:27:10;97169.91;;;-12.46;100.00
54038;BME280;39954;48.844;9.726;2022-12-18T03:28:15;97168.72;;;-12.52;100.00
54038;BME280;39954;48.844;9.726;2022-12-18T03:29:29;97173.53;;;-12.57;100.00
54038;BME280;39954;48.844;9.726;2022-12-18T03:30:37;97172.44;;;-12.62;100.00
54038;BME280;39954;48.844;9.726;2022-12-18T03:31:47;97175.56;;;-12.66;100.00
54038;BME280;39954;48.844;9.726;2022-12-18T03:32:56;97170.56;;;-12.66;100.00
54038;BME280;39954;48.844;9.726;2022-12-18T03:34:04;97173.00;;;-12.68;100.00
54038;BME280;39954;48.844;9.726;2022-12-18T03:35:12;97185.22;;;-12.74;100.00
54038;BME280;39954;48.844;9.726;2022-12-18T03:36:22;97192.38;;;-12.80;100.00
54038;BME280;39954;48.844;9.726;2022-12-18T03:37:25;97177.16;;;-12.85;100.00
54038;BME280;39954;48.844;9.726;2022-12-18T03:38:30;97175.25;;;-12.89;100.00
54038;BME280;39954;48.844;9.726;2022-12-18T03:39:32;97172.44;;;-12.95;100.00
54038;BME280;39954;48.844;9.726;2022-12-18T03:40:45;97180.50;;;-13.00;100.00
54038;BME280;39954;48.844;9.726;2022-12-18T03:41:55;97178.56;;;-13.06;100.00
54038;BME280;39954;48.844;9.726;2022-12-18T03:43:06;97183.25;;;-13.12;100.00
54038;BME280;39954;48.844;9.726;2022-12-18T03:44:13;97183.78;;;-13.18;100.00
54038;BME280;39954;48.844;9.726;2022-12-18T03:45:26;97181.19;;;-13.19;100.00
54038;BME280;39954;48.844;9.726;2022-12-18T03:46:33;97183.63;;;-13.21;100.00
54038;BME280;39954;48.844;9.726;2022-12-18T03:47:46;97178.69;;;-13.19;100.00
54038;BME280;39954;48.844;9.726;2022-12-18T03:48:59;97173.53;;;-13.22;100.00
54038;BME280;39954;48.844;9.726;2022-12-18T03:50:11;97185.91;;;-13.25;100.00
54038;BME280;39954;48.844;9.726;2022-12-18T03:51:17;97184.97;;;-13.27;100.00
54038;BME280;39954;48.844;9.726;2022-12-18T03:52:26;97176.38;;;-13.33;100.00
54038;BME280;39954;48.844;9.726;2022-12-18T03:53:36;97183.72;;;-13.36;100.00
54038;BME280;39954;48.844;9.726;2022-12-18T03:54:45;97183.53;;;-13.39;100.00
54038;BME280;39954;48.844;9.726;2022-12-18T03:55:47;97182.53;;;-13.42;100.00
54038;BME280;39954;48.844;9.726;2022-12-18T03:56:58;97184.78;;;-13.47;100.00
54038;BME280;39954;48.844;9.726;2022-12-18T03:58:02;97189.78;;;-13.47;100.00
54038;BME280;39954;48.844;9.726;2022-12-18T03:59:09;97191.69;;;-13.43;100.00
54038;BME280;39954;48.844;9.726;2022-12-18T04:00:15;97191.69;;;-13.43;100.00
54038;BME280;39954;48.844;9.726;2022-12-18T04:01:30;97192.22;;;-13.48;100.00
54038;BME280;39954;48.844;9.726;2022-12-18T04:02:34;97188.91;;;-13.47;100.00
54038;BME280;39954;48.844;9.726;2022-12-18T04:03:42;97184.56;;;-13.51;100.00
54038;BME280;39954;48.844;9.726;2022-12-18T04:04:46;97181.03;;;-13.55;100.00
54038;BME280;39954;48.844;9.726;2022-12-18T04:05:54;97176.72;;;-13.58;100.00
54038;BME280;39954;48.844;9.726;2022-12-18T04:06:57;97186.56;;;-13.61;100.00
54038;BME280;39954;48.844;9.726;2022-12-18T04:08:02;97187.25;;;-13.63;100.00
54038;BME280;39954;48.844;9.726;2022-12-18T04:09:05;97183.00;;;-13.64;100.00
54038;BME280;39954;48.844;9.726;2022-12-18T04:10:10;97187.09;;;-13.66;100.00
54038;BME280;39954;48.844;9.726;2022-12-18T04:11:14;97181.91;;;-13.69;100.00
54038;BME280;39954;48.844;9.726;2022-12-18T04:12:19;97184.34;;;-13.71;100.00
54038;BME280;39954;48.844;9.726;2022-12-18T04:13:22;97183.31;;;-13.74;100.00
54038;BME280;39954;48.844;9.726;2022-12-18T04:14:26;97188.31;;;-13.74;100.00
54038;BME280;39954;48.844;9.726;2022-12-18T04:15:31;97179.78;;;-13.78;100.00
54038;BME280;39954;48.844;9.726;2022-12-18T04:16:38;97181.19;;;-13.83;100.00
54038;BME280;39954;48.844;9.726;2022-12-18T04:17:47;97177.81;;;-13.84;100.00
54038;BME280;39954;48.844;9.726;2022-12-18T04:18:50;97187.03;;;-13.83;100.00
54038;BME280;39954;48.844;9.726;2022-12-18T04:19:55;97180.94;;;-13.88;100.00
54038;BME280;39954;48.844;9.726;2022-12-18T04:20:57;97174.22;;;-13.89;100.00
54038;BME280;39954;48.844;9.726;2022-12-18T04:22:02;97169.81;;;-13.93;100.00
54038;BME280;39954;48.844;9.726;2022-12-18T04:23:04;97175.75;;;-13.91;100.00
54038;BME280;39954;48.844;9.726;2022-12-18T04:24:08;97170.66;;;-13.92;100.00
54038;BME280;39954;48.844;9.726;2022-12-18T04:25:11;97177.56;;;-13.88;100.00
54038;BME280;39954;48.844;9.726;2022-12-18T04:26:15;97185.75;;;-13.91;100.00
54038;BME280;39954;48.844;9.726;2022-12-18T04:27:17;97179.22;;;-13.89;100.00
54038;BME280;39954;48.844;9.726;2022-12-18T04:28:22;97175.81;;;-13.89;100.00
54038;BME280;39954;48.844;9.726;2022-12-18T04:29:24;97184.81;;;-13.93;100.00
54038;BME280;39954;48.844;9.726;2022-12-18T04:30:28;97183.00;;;-13.95;100.00
54038;BME280;39954;48.844;9.726;2022-12-18T04:31:30;97181.19;;;-13.98;100.00
54038;BME280;39954;48.844;9.726;2022-12-18T04:32:38;97183.69;;;-13.98;100.00
54038;BME280;39954;48.844;9.726;2022-12-18T04:33:40;97185.94;;;-14.03;100.00
54038;BME280;39954;48.844;9.726;2022-12-18T04:34:44;97191.63;;;-14.05;100.00
54038;BME280;39954;48.844;9.726;2022-12-18T04:35:46;97191.13;;;-14.00;100.00
54038;BME280;39954;48.844;9.726;2022-12-18T04:36:51;97198.50;;;-14.01;100.00
54038;BME280;39954;48.844;9.726;2022-12-18T04:37:53;97195.44;;;-13.97;100.00
54038;BME280;39954;48.844;9.726;2022-12-18T04:38:57;97201.28;;;-13.96;100.00
54038;BME280;39954;48.844;9.726;2022-12-18T04:40:02;97202.91;;;-13.97;100.00
54038;BME280;39954;48.844;9.726;2022-12-18T04:41:05;97201.97;;;-13.99;100.00
54038;BME280;39954;48.844;9.726;2022-12-18T04:42:09;97198.44;;;-14.03;100.00
54038;BME280;39954;48.844;9.726;2022-12-18T04:43:11;97195.69;;;-14.07;100.00
54038;BME280;39954;48.844;9.726;2022-12-18T04:44:16;97200.50;;;-14.10;100.00
54038;BME280;39954;48.844;9.726;2022-12-18T04:45:18;97193.78;;;-14.11;100.00
54038;BME280;39954;48.844;9.726;2022-12-18T04:46:22;97197.31;;;-14.08;100.00
54038;BME280;39954;48.844;9.726;2022-12-18T04:47:24;97204.66;;;-14.11;100.00
54038;BME280;39954;48.844;9.726;2022-12-18T04:48:32;97193.88;;;-14.10;100.00
54038;BME280;39954;48.844;9.726;2022-12-18T04:49:34;97195.06;;;-14.03;100.00
54038;BME280;39954;48.844;9.726;2022-12-18T04:50:38;97205.84;;;-14.04;100.00
54038;BME280;39954;48.844;9.726;2022-12-18T04:51:41;97211.47;;;-14.08;100.00
54038;BME280;39954;48.844;9.726;2022-12-18T04:52:46;97211.47;;;-14.08;100.00
54038;BME280;39954;48.844;9.726;2022-12-18T04:53:47;97206.34;;;-14.10;100.00
54038;BME280;39954;48.844;9.726;2022-12-18T04:54:52;97212.22;;;-14.09;100.00
54038;BME280;39954;48.844;9.726;2022-12-18T04:56:02;97206.25;;;-14.11;100.00
54038;BME280;39954;48.844;9.726;2022-12-18T04:57:07;97206.19;;;-14.13;100.00
54038;BME280;39954;48.844;9.726;2022-12-18T04:58:09;97207.56;;;-14.18;100.00
54038;BME280;39954;48.844;9.726;2022-12-18T04:59:14;97206.09;;;-14.14;100.00
54038;BME280;39954;48.844;9.726;2022-12-18T05:00:16;97205.16;;;-14.16;100.00
54038;BME280;39954;48.844;9.726;2022-12-18T05:01:21;97210.16;;;-14.16;100.00
54038;BME280;39954;48.844;9.726;2022-12-18T05:02:23;97209.53;;;-14.12;100.00
54038;BME280;39954;48.844;9.726;2022-12-18T05:03:28;97209.38;;;-14.15;100.00
54038;BME280;39954;48.844;9.726;2022-12-18T05:04:32;97205.06;;;-14.18;100.00
54038;BME280;39954;48.844;9.726;2022-12-18T05:05:37;97200.75;;;-14.21;100.00
54038;BME280;39954;48.844;9.726;2022-12-18T05:06:39;97205.94;;;-14.17;100.00
54038;BME280;39954;48.844;9.726;2022-12-18T05:07:44;97214.53;;;-14.12;100.00
54038;BME280;39954;48.844;9.726;2022-12-18T05:08:46;97214.88;;;-14.21;100.00
54038;BME280;39954;48.844;9.726;2022-12-18T05:09:51;97207.81;;;-14.28;100.00
54038;BME280;39954;48.844;9.726;2022-12-18T05:10:58;97210.25;;;-14.30;100.00
54038;BME280;39954;48.844;9.726;2022-12-18T05:12:03;97209.72;;;-14.39;100.00
54038;BME280;39954;48.844;9.726;2022-12-18T05:13:05;97208.59;;;-14.44;100.00
54038;BME280;39954;48.844;9.726;2022-12-18T05:14:10;97214.97;;;-14.49;100.00
54038;BME280;39954;48.844;9.726;2022-12-18T05:15:12;97209.28;;;-14.47;100.00
54038;BME280;39954;48.844;9.726;2022-12-18T05:16:17;97214.19;;;-14.48;100.00
54038;BME280;39954;48.844;9.726;2022-12-18T05:17:19;97217.47;;;-14.49;100.00
54038;BME280;39954;48.844;9.726;2022-12-18T05:18:24;97211.38;;;-14.54;100.00
54038;BME280;39954;48.844;9.726;2022-12-18T05:19:26;97213.19;;;-14.52;100.00
54038;BME280;39954;48.844;9.726;2022-12-18T05:20:33;97213.50;;;-14.46;100.00
54038;BME280;39954;48.844;9.726;2022-12-18T05:21:35;97215.91;;;-14.47;100.00
54038;BME280;39954;48.844;9.726;2022-12-18T05:22:40;97208.44;;;-14.47;100.00
54038;BME280;39954;48.844;9.726;2022-12-18T05:23:42;97219.00;;;-14.51;100.00
54038;BME280;39954;48.844;9.726;2022-12-18T05:24:46;97215.75;;;-14.50;100.00
54038;BME280;39954;48.844;9.726;2022-12-18T05:25:50;97216.78;;;-14.47;100.00
54038;BME280;39954;48.844;9.726;2022-12-18T05:26:55;97211.00;;;-14.46;100.00
54038;BME280;39954;48.844;9.726;2022-12-18T05:27:57;97213.59;;;-14.44;100.00
54038;BME280;39954;48.844;9.726;2022-12-18T05:29:02;97201.34;;;-14.39;100.00
54038;BME280;39954;48.844;9.726;2022-12-18T05:30:05;97202.81;;;-14.43;100.00
54038;BME280;39954;48.844;9.726;2022-12-18T05:31:10;97209.47;;;-14.44;100.00
54038;BME280;39954;48.844;9.726;2022-12-18T05:32:12;97204.63;;;-14.40;100.00
54038;BME280;39954;48.844;9.726;2022-12-18T05:33:17;97206.97;;;-14.44;100.00
54038;BME280;39954;48.844;9.726;2022-12-18T05:34:19;97203.34;;;-14.34;100.00
54038;BME280;39954;48.844;9.726;2022-12-18T05:35:24;97201.78;;;-14.32;100.00
54038;BME280;39954;48.844;9.726;2022-12-18T05:36:28;97203.84;;;-14.39;100.00
54038;BME280;39954;48.844;9.726;2022-12-18T05:37:33;97203.00;;;-14.40;100.00
54038;BME280;39954;48.844;9.726;2022-12-18T05:38:43;97213.84;;;-14.39;100.00
54038;BME280;39954;48.844;9.726;2022-12-18T05:39:48;97207.81;;;-14.28;100.00